Time;durP1;ratioP1;P1;durP2;ratioP2;P2;SDS_P1;SDS_P2;PMS_P1;PMS_P2;Temp;Humidity;BMP_temperature;BMP_pressure;BME280_temperature;BME280_humidity;BME280_pressure;Samples;Min_cycle;Max_cycle;Signal;HPM_P1;HPM_P2
2021/11/09 00:01:28;;;;;;;8.00;5.50;;;;;;;24.78;nan;101709.78;5055516;28;20181;-71
2021/11/09 00:04:04;;;;;;;8.03;5.43;;;;;;;24.86;nan;101698.09;5055872;28;20190;-72
2021/11/09 00:06:33;;;;;;;9.43;5.90;;;;;;;24.75;nan;101712.81;5040076;28;20179;-72
2021/11/09 00:09:07;;;;;;;8.77;5.53;;;;;;;24.66;nan;101715.59;5073011;28;20162;-71
2021/11/09 00:11:33;;;;;;;6.00;4.73;;;;;;;24.76;nan;101725.44;5055099;28;20214;-72
2021/11/09 00:13:58;;;;;;;7.47;5.10;;;;;;;24.56;nan;101724.69;5038538;28;20227;-72
2021/11/09 00:16:23;;;;;;;12.20;5.10;;;;;;;24.66;nan;101741.03;5057045;28;20230;-72
2021/11/09 00:18:49;;;;;;;7.97;5.00;;;;;;;24.81;nan;101744.09;5055954;28;20237;-71
2021/11/09 00:21:17;;;;;;;8.37;4.50;;;;;;;25.06;nan;101742.56;5073708;28;20174;-72
2021/11/09 00:23:42;;;;;;;6.20;3.90;;;;;;;23.93;nan;101734.47;5073090;28;20182;-72
2021/11/09 00:26:08;;;;;;;5.30;4.37;;;;;;;24.54;nan;101731.31;5073232;28;20172;-72
2021/11/09 00:28:34;;;;;;;10.47;5.67;;;;;;;24.35;nan;101724.06;5038422;28;20171;-73
2021/11/09 00:30:59;;;;;;;7.07;4.97;;;;;;;24.52;nan;101722.41;5073082;28;20181;-72
2021/11/09 00:33:24;;;;;;;5.97;4.60;;;;;;;24.79;nan;101732.47;5072753;28;20174;-72
2021/11/09 00:35:50;;;;;;;8.77;4.67;;;;;;;24.72;nan;101737.69;5055594;28;20654;-72
2021/11/09 00:38:15;;;;;;;7.10;4.17;;;;;;;24.88;nan;101735.16;5073574;28;20233;-71
2021/11/09 00:40:42;;;;;;;9.30;4.93;;;;;;;25.09;nan;101737.66;5054837;28;20186;-72
2021/11/09 00:43:09;;;;;;;7.77;4.20;;;;;;;25.12;nan;101736.47;5072585;28;20174;-71
2021/11/09 00:45:35;;;;;;;6.47;5.30;;;;;;;24.96;nan;101737.13;5054573;28;20170;-71
2021/11/09 00:48:00;;;;;;;7.57;5.37;;;;;;;24.92;nan;101730.28;5054645;28;20266;-71
2021/11/09 00:50:27;;;;;;;7.97;4.67;;;;;;;25.04;nan;101739.13;5072743;28;20177;-72
2021/11/09 00:52:53;;;;;;;11.40;5.50;;;;;;;24.95;nan;101721.75;5054712;28;20169;-72
2021/11/09 00:55:19;;;;;;;11.13;5.60;;;;;;;24.61;nan;101727.84;5055459;28;20221;-72
2021/11/09 00:57:45;;;;;;;8.83;4.97;;;;;;;24.73;nan;101724.91;5056437;28;20177;-73
2021/11/09 01:00:14;;;;;;;7.47;5.13;;;;;;;24.83;nan;101726.56;5060188;28;20232;-72
2021/11/09 01:02:43;;;;;;;9.47;5.43;;;;;;;24.95;nan;101724.50;5059130;28;20177;-71
2021/11/09 01:05:09;;;;;;;9.50;5.67;;;;;;;24.70;nan;101719.75;5059075;28;20304;-71
2021/11/09 01:07:34;;;;;;;6.60;5.30;;;;;;;24.69;nan;101712.56;5059172;28;20229;-71
2021/11/09 01:10:00;;;;;;;8.20;4.90;;;;;;;24.77;nan;101720.84;5059223;28;20186;-71
2021/11/09 01:12:25;;;;;;;9.23;5.57;;;;;;;24.07;nan;101705.88;5077554;28;20215;-72
2021/11/09 01:14:50;;;;;;;9.97;5.70;;;;;;;24.21;nan;101716.34;5059406;28;20244;-72
2021/11/09 01:17:16;;;;;;;11.40;5.40;;;;;;;24.52;nan;101717.81;5077512;28;20189;-72
2021/11/09 01:19:41;;;;;;;8.17;4.97;;;;;;;23.85;nan;101713.41;5088835;28;20203;-72
2021/11/09 01:22:07;;;;;;;11.33;6.03;;;;;;;23.86;nan;101717.00;5052208;28;20177;-72
2021/11/09 01:24:32;;;;;;;9.90;6.17;;;;;;;23.89;nan;101724.88;5066767;28;20219;-71
2021/11/09 01:26:57;;;;;;;16.77;5.90;;;;;;;24.09;nan;101715.63;5071355;28;20181;-71
2021/11/09 01:29:23;;;;;;;12.73;5.90;;;;;;;24.36;nan;101712.13;5066000;28;20177;-71
2021/11/09 01:31:49;;;;;;;10.63;5.63;;;;;;;24.47;nan;101713.81;5090300;28;20174;-71
2021/11/09 01:34:14;;;;;;;13.80;6.60;;;;;;;23.58;nan;101710.56;5057342;28;20209;-71
2021/11/09 01:36:40;;;;;;;14.23;6.60;;;;;;;23.56;nan;101699.81;5073673;28;20182;-71
2021/11/09 01:39:06;;;;;;;12.40;6.97;;;;;;;22.91;nan;101705.88;5074560;28;20217;-72
2021/11/09 01:41:33;;;;;;;11.93;6.47;;;;;;;22.73;nan;101711.13;5074637;28;20186;-72
2021/11/09 01:43:58;;;;;;;17.50;7.33;;;;;;;22.82;nan;101709.44;5075642;28;20216;-72
2021/11/09 01:46:24;;;;;;;16.53;7.23;;;;;;;24.09;nan;101706.59;5073155;28;20177;-72
2021/11/09 01:48:50;;;;;;;15.60;6.83;;;;;;;24.30;nan;101705.41;5074621;28;20605;-72
2021/11/09 01:51:17;;;;;;;21.37;6.83;;;;;;;24.72;nan;101718.59;5057606;28;20634;-71
2021/11/09 01:53:46;;;;;;;10.70;5.87;;;;;;;24.12;nan;101715.31;5090619;28;20236;-71
2021/11/09 01:56:15;;;;;;;20.17;7.03;;;;;;;24.19;nan;101705.56;5074246;28;20187;-71
2021/11/09 01:58:41;;;;;;;12.23;5.83;;;;;;;24.05;nan;101716.06;5057534;28;20205;-73
2021/11/09 02:01:10;;;;;;;16.70;6.37;;;;;;;23.93;nan;101718.13;5073062;28;20573;-72
2021/11/09 02:03:37;;;;;;;21.63;6.30;;;;;;;23.98;nan;101721.25;5090575;28;20242;-72
2021/11/09 02:06:03;;;;;;;22.40;6.50;;;;;;;23.67;nan;101706.97;5057753;28;20192;-72
2021/11/09 02:08:29;;;;;;;18.27;6.10;;;;;;;24.51;nan;101713.34;5090926;28;20166;-72
2021/11/09 02:10:55;;;;;;;17.60;6.73;;;;;;;23.97;nan;101725.84;5069799;28;20253;-72
2021/11/09 02:13:22;;;;;;;27.57;7.57;;;;;;;24.34;nan;101726.94;5063125;28;20179;-72
2021/11/09 02:15:47;;;;;;;25.37;7.53;;;;;;;24.65;nan;101739.31;5076522;28;20167;-72
2021/11/09 02:18:13;;;;;;;15.27;6.57;;;;;;;24.61;nan;101732.44;5058403;28;20566;-72
2021/11/09 02:20:48;;;;;;;22.70;7.37;;;;;;;24.61;nan;101733.28;5057989;28;20173;-72
2021/11/09 02:23:13;;;;;;;27.63;6.83;;;;;;;24.42;nan;101724.31;5057667;28;20245;-72
2021/11/09 02:25:38;;;;;;;21.10;6.97;;;;;;;24.29;nan;101719.19;5075318;28;20605;-73
2021/11/09 02:28:04;;;;;;;23.70;7.10;;;;;;;24.40;nan;101724.47;5057794;28;20188;-72
2021/11/09 02:30:30;;;;;;;21.47;6.23;;;;;;;24.86;nan;101733.56;5075066;28;20736;-72
2021/11/09 02:32:57;;;;;;;20.50;7.20;;;;;;;24.37;nan;101732.09;5042093;28;20546;-73
2021/11/09 02:35:24;;;;;;;21.23;6.80;;;;;;;24.61;nan;101738.75;5056823;28;20202;-71
2021/11/09 02:37:51;;;;;;;19.00;6.53;;;;;;;24.41;nan;101739.81;5057165;28;20199;-71
2021/11/09 02:40:16;;;;;;;22.90;6.67;;;;;;;24.31;nan;101728.97;5056813;28;20180;-72
2021/11/09 02:42:47;;;;;;;26.77;7.73;;;;;;;24.13;nan;101738.88;5056682;28;20182;-73
2021/11/09 02:45:18;;;;;;;17.67;7.17;;;;;;;24.59;nan;101738.03;5056748;28;20200;-72
2021/11/09 02:48:01;;;;;;;17.27;6.70;;;;;;;;;;5057162;28;20610;-72
2021/11/09 02:50:32;;;;;;;16.53;6.77;;;;;;;23.55;nan;101736.22;5075014;28;20291;-73
2021/11/09 02:53:10;;;;;;;17.60;6.13;;;;;;;22.88;nan;101730.66;5057652;28;20629;-73
2021/11/09 02:55:39;;;;;;;9.67;5.83;;;;;;;22.03;nan;101731.81;5056072;28;20188;-73
2021/11/09 02:58:21;;;;;;;11.80;5.40;;;;;;;22.64;nan;101734.53;5056960;28;20246;-73
2021/11/09 03:03:18;;;;;;;14.87;5.00;;;;;;;23.28;nan;101734.16;5056546;28;20179;-73
2021/11/09 03:05:58;;;;;;;7.67;4.23;;;;;;;23.09;nan;101736.88;5074354;28;20606;-72
2021/11/09 03:10:49;;;;;;;8.17;3.57;;;;;;;23.80;nan;101744.84;5056564;28;20167;-72
2021/11/09 03:13:15;;;;;;;4.27;3.17;;;;;;;22.94;nan;101732.81;5074221;28;20186;-72
2021/11/09 03:15:40;;;;;;;3.50;2.83;;;;;;;22.00;nan;101736.63;5074497;28;20531;-73
2021/11/09 03:18:13;;;;;;;5.53;3.17;;;;;;;22.76;nan;101746.22;5073869;28;20205;-73
2021/11/09 03:44:55;;;;;;;4.73;4.13;;;;;;;22.80;nan;101787.59;5058275;28;20699;-72
2021/11/09 03:47:22;;;;;;;5.97;4.07;;;;;;;21.67;nan;101805.59;5057132;28;20193;-73
2021/11/09 03:49:48;;;;;;;5.60;4.40;;;;;;;22.36;nan;101797.84;5055804;28;20170;-74
2021/11/09 03:52:20;;;;;;;5.30;4.50;;;;;;;22.69;nan;101794.88;5055607;28;20180;-73
2021/11/09 03:54:48;;;;;;;5.80;5.07;;;;;;;22.32;nan;101801.84;5072163;28;20225;-73
2021/11/09 03:57:21;;;;;;;7.57;4.73;;;;;;;22.38;nan;101796.72;5055761;28;20180;-74
2021/11/09 04:02:30;;;;;;;6.90;4.20;;;;;;;23.22;nan;101802.81;5057066;28;20170;-73
2021/11/09 04:05:00;;;;;;;6.87;4.43;;;;;;;23.11;nan;101802.94;5056899;28;20199;-73
2021/11/09 04:07:38;;;;;;;5.37;3.80;;;;;;;23.50;nan;101803.03;5073443;28;20171;-75
2021/11/09 04:12:56;;;;;;;6.67;4.97;;;;;;;23.42;nan;101817.34;5073017;28;20185;-73
2021/11/09 04:18:15;;;;;;;7.90;4.83;;;;;;;22.01;nan;101815.31;5058106;28;20198;-72
2021/11/09 04:20:55;;;;;;;7.77;4.90;;;;;;;23.51;nan;101818.38;5074590;28;20540;-74
2021/11/09 04:23:45;;;;;;;7.63;4.77;;;;;;;23.71;nan;101828.31;5057495;28;20158;-73
2021/11/09 04:29:07;;;;;;;7.40;5.17;;;;;;;24.17;nan;101821.28;5056596;28;20601;-73
2021/11/09 04:34:51;;;;;;;9.33;5.20;;;;;;;23.34;nan;101828.94;5075890;28;20212;-72
2021/11/09 05:09:11;;;;;;;6.73;4.83;;;;;;;23.63;nan;101844.50;5061924;28;20162;-73
2021/11/09 05:11:38;;;;;;;7.20;4.27;;;;;;;24.28;nan;101852.00;5077300;28;20160;-73
2021/11/09 05:14:06;;;;;;;8.43;4.80;;;;;;;24.36;nan;101848.53;5076652;28;20269;-73
2021/11/09 05:16:31;;;;;;;7.57;4.90;;;;;;;23.33;nan;101839.97;5077220;28;20591;-73
2021/11/09 05:18:57;;;;;;;7.37;5.00;;;;;;;23.23;nan;101848.13;5058826;28;20208;-73
2021/11/09 05:21:22;;;;;;;5.60;4.17;;;;;;;23.53;nan;101851.78;5058604;28;20672;-72
2021/11/09 05:23:48;;;;;;;6.47;4.60;;;;;;;22.54;nan;101857.94;5058336;28;20209;-73
2021/11/09 05:26:13;;;;;;;5.37;3.77;;;;;;;23.20;nan;101852.97;5074977;28;20543;-73
2021/11/09 05:28:38;;;;;;;6.07;4.10;;;;;;;23.39;nan;101851.16;5042015;28;20174;-73
2021/11/09 05:31:04;;;;;;;11.00;5.47;;;;;;;23.95;nan;101845.09;5076209;28;20182;-72
2021/11/09 05:33:29;;;;;;;10.07;4.97;;;;;;;23.56;nan;101854.25;5041569;28;20278;-73
2021/11/09 05:35:57;;;;;;;8.43;4.83;;;;;;;23.84;nan;101853.44;5057909;28;20190;-73
2021/11/09 05:38:30;;;;;;;10.10;5.07;;;;;;;24.01;nan;101854.56;5075919;28;20198;-73
2021/11/09 05:40:58;;;;;;;8.00;5.40;;;;;;;23.68;nan;101862.16;5057933;28;20174;-72
2021/11/09 05:43:24;;;;;;;8.47;4.93;;;;;;;23.96;nan;101865.91;5057557;28;20181;-74
2021/11/09 05:45:49;;;;;;;11.03;5.60;;;;;;;;;;5056802;28;20177;-74
2021/11/09 05:48:15;;;;;;;12.03;5.53;;;;;;;23.13;nan;101860.84;5076063;28;20232;-73
2021/11/09 05:50:40;;;;;;;9.27;5.80;;;;;;;23.36;nan;101858.75;5058796;28;20257;-73
2021/11/09 05:53:05;;;;;;;10.20;6.57;;;;;;;23.02;nan;101864.50;5061484;28;20208;-73
2021/11/09 05:55:31;;;;;;;9.43;6.73;;;;;;;21.97;nan;101876.38;5042407;28;20266;-74
2021/11/09 05:57:56;;;;;;;10.67;6.53;;;;;;;23.24;nan;101873.50;5040694;28;20212;-73
2021/11/09 06:00:22;;;;;;;11.63;6.80;;;;;;;23.16;nan;101885.06;5075687;28;20621;-73
2021/11/09 06:02:47;;;;;;;10.87;6.87;;;;;;;23.09;nan;101875.75;5057401;28;20171;-73
2021/11/09 06:05:12;;;;;;;13.57;7.63;;;;;;;21.99;nan;101893.44;5075417;28;20191;-74
2021/11/09 06:07:38;;;;;;;15.33;8.23;;;;;;;23.07;nan;101888.63;5058629;28;20169;-73
2021/11/09 06:10:04;;;;;;;15.23;7.23;;;;;;;22.84;nan;101896.09;5075382;28;20251;-73
2021/11/09 06:12:30;;;;;;;17.47;8.70;;;;;;;23.08;nan;101893.94;5057737;28;20198;-73
2021/11/09 06:14:55;;;;;;;17.07;7.67;;;;;;;23.07;nan;101899.53;5076708;28;20540;-73
2021/11/09 06:17:20;;;;;;;14.37;8.60;;;;;;;22.61;nan;101903.50;5075643;28;20179;-73
2021/11/09 06:19:45;;;;;;;14.93;8.10;;;;;;;22.82;nan;101898.09;5057166;28;20207;-72
2021/11/09 06:22:12;;;;;;;15.30;7.83;;;;;;;23.51;nan;101905.56;5058225;28;20178;-72
2021/11/09 06:24:37;;;;;;;16.57;8.67;;;;;;;23.24;nan;101898.00;5058043;28;20194;-73
2021/11/09 06:27:02;;;;;;;13.83;8.67;;;;;;;23.75;nan;101907.91;5075322;28;20188;-73
2021/11/09 06:29:28;;;;;;;13.97;8.50;;;;;;;23.06;nan;101909.53;5075286;28;20196;-73
2021/11/09 06:31:56;;;;;;;19.27;8.97;;;;;;;23.84;nan;101918.00;5057226;28;20232;-72
2021/11/09 06:34:22;;;;;;;17.63;9.97;;;;;;;24.14;nan;101915.13;5074764;28;20194;-73
2021/11/09 06:36:47;;;;;;;14.77;8.37;;;;;;;24.13;nan;101915.28;5076309;28;20522;-74
2021/11/09 06:39:12;;;;;;;16.63;9.50;;;;;;;23.28;nan;101927.53;5056743;28;20241;-74
2021/11/09 06:41:38;;;;;;;16.33;8.93;;;;;;;24.33;nan;101933.41;5074499;28;20197;-74
2021/11/09 06:44:03;;;;;;;14.87;9.27;;;;;;;24.91;nan;101930.59;5074355;28;20190;-74
2021/11/09 06:46:28;;;;;;;15.10;8.93;;;;;;;23.22;nan;101936.25;5074463;28;20201;-74
2021/11/09 06:48:54;;;;;;;23.80;11.50;;;;;;;23.96;nan;101939.53;5074685;28;20240;-74
2021/11/09 06:51:19;;;;;;;19.00;10.70;;;;;;;21.91;nan;101949.38;5074705;28;20180;-73
2021/11/09 06:53:44;;;;;;;17.60;10.10;;;;;;;22.96;nan;101952.16;5074278;28;20209;-74
2021/11/09 06:56:10;;;;;;;21.20;10.90;;;;;;;22.75;nan;101962.19;5074313;28;20177;-73
2021/11/09 06:58:36;;;;;;;22.50;10.60;;;;;;;23.61;nan;101953.66;5056183;28;20241;-73
2021/11/09 07:01:02;;;;;;;18.57;11.07;;;;;;;23.98;nan;101970.25;5074173;28;20272;-73
2021/11/09 07:03:30;;;;;;;20.60;11.23;;;;;;;23.88;nan;101977.53;5057721;28;20177;-74
2021/11/09 07:05:55;;;;;;;14.33;9.53;;;;;;;24.05;nan;101975.13;5039436;28;20201;-74
2021/11/09 07:08:21;;;;;;;16.27;9.70;;;;;;;24.18;nan;101975.72;5073849;28;20202;-74
2021/11/09 07:10:47;;;;;;;16.23;10.17;;;;;;;24.01;nan;101972.69;5073850;28;20170;-73
2021/11/09 07:13:12;;;;;;;16.87;9.93;;;;;;;23.93;nan;101990.75;5073710;28;20181;-74
2021/11/09 07:15:38;;;;;;;17.67;10.73;;;;;;;23.86;nan;101987.72;5073936;28;20531;-74
2021/11/09 07:18:04;;;;;;;19.33;10.37;;;;;;;23.04;nan;101990.50;5073481;28;20197;-74
2021/11/09 07:20:31;;;;;;;18.60;9.77;;;;;;;23.51;nan;101987.28;5073830;28;20363;-74
2021/11/09 07:23:00;;;;;;;15.33;9.43;;;;;;;24.60;nan;101995.44;5074509;28;20571;-74
2021/11/09 07:25:25;;;;;;;16.70;9.27;;;;;;;22.44;nan;101994.75;5077337;28;20213;-74
2021/11/09 07:27:51;;;;;;;17.00;9.80;;;;;;;24.05;nan;101988.75;5059649;28;20547;-73
2021/11/09 07:30:17;;;;;;;18.77;9.87;;;;;;;22.38;nan;101987.09;5075761;28;20228;-74
2021/11/09 07:32:44;;;;;;;19.00;10.10;;;;;;;23.02;nan;101992.47;5058687;28;20181;-75
2021/11/09 07:35:10;;;;;;;17.97;9.80;;;;;;;23.90;nan;101989.16;5058146;28;20193;-74
2021/11/09 07:37:36;;;;;;;17.20;9.63;;;;;;;24.23;nan;101990.66;5057089;28;20175;-74
2021/11/09 07:40:02;;;;;;;17.53;10.00;;;;;;;22.89;nan;101996.41;5057731;28;20563;-73
2021/11/09 07:42:27;;;;;;;16.20;9.93;;;;;;;23.94;nan;101998.78;5073322;28;20626;-74
2021/11/09 07:44:54;;;;;;;16.37;9.23;;;;;;;23.39;nan;101998.25;5073198;28;20190;-73
2021/11/09 07:47:19;;;;;;;20.00;10.67;;;;;;;24.60;nan;101992.72;5073226;28;20570;-73
2021/11/09 07:49:45;;;;;;;16.30;9.37;;;;;;;24.98;nan;102008.22;5054909;28;20257;-74
2021/11/09 07:52:11;;;;;;;12.63;8.03;;;;;;;24.63;nan;101996.03;5055056;28;20178;-74
2021/11/09 07:54:40;;;;;;;15.73;8.43;;;;;;;24.80;nan;102009.94;5073323;28;20685;-74
2021/11/09 07:57:09;;;;;;;12.83;7.90;;;;;;;24.55;nan;102004.06;5073076;28;20185;-73
2021/11/09 08:02:15;;;;;;;11.37;7.30;;;;;;;24.82;nan;102008.78;5056855;28;20215;-74
2021/11/09 08:04:48;;;;;;;11.47;8.13;;;;;;;24.85;nan;102011.22;5072855;28;20194;-73
2021/11/09 08:07:21;;;;;;;12.43;7.77;;;;;;;23.31;nan;102013.56;5039530;28;20171;-74
2021/11/09 08:09:46;;;;;;;13.27;8.33;;;;;;;24.52;nan;102012.53;5059786;28;20158;-73
2021/11/09 08:12:11;;;;;;;10.90;7.97;;;;;;;25.28;nan;102017.22;5059790;28;20188;-74
2021/11/09 08:14:37;;;;;;;12.57;8.30;;;;;;;24.37;nan;102019.41;5078291;28;20201;-74
2021/11/09 08:17:03;;;;;;;10.93;7.87;;;;;;;24.66;nan;102027.63;5059637;28;20196;-74
2021/11/09 08:19:28;;;;;;;10.83;7.70;;;;;;;24.49;nan;102031.06;5059421;28;20205;-74
2021/11/09 08:21:54;;;;;;;12.57;7.93;;;;;;;25.03;nan;102027.75;5076881;28;20539;-74
2021/11/09 08:24:20;;;;;;;16.27;8.37;;;;;;;24.22;nan;102024.41;5059149;28;20191;-74
2021/11/09 08:26:46;;;;;;;12.73;7.97;;;;;;;25.15;nan;102028.44;5076924;28;20174;-74
2021/11/09 08:29:12;;;;;;;11.63;7.57;;;;;;;25.06;nan;102035.66;5076927;28;20581;-74
2021/11/09 08:31:42;;;;;;;10.70;8.20;;;;;;;25.28;nan;102044.53;5058893;28;20261;-74
2021/11/09 08:34:09;;;;;;;13.13;8.07;;;;;;;24.24;nan;102040.63;5059176;28;20182;-74
2021/11/09 08:36:34;;;;;;;13.30;8.50;;;;;;;24.49;nan;102029.19;5058728;28;20173;-73
2021/11/09 08:39:04;;;;;;;10.73;7.90;;;;;;;25.05;nan;102038.53;5076539;28;20209;-74
2021/11/09 08:41:38;;;;;;;12.10;7.97;;;;;;;24.79;nan;102041.84;5076622;28;20167;-74
2021/11/09 08:44:06;;;;;;;13.20;7.83;;;;;;;24.42;nan;102051.72;5076182;28;20186;-74
2021/11/09 08:46:45;;;;;;;9.57;7.40;;;;;;;23.54;nan;102055.13;5076379;28;20175;-74
2021/11/09 08:49:12;;;;;;;13.50;8.70;;;;;;;24.53;nan;102063.41;5060445;28;20680;-75
2021/11/09 08:51:39;;;;;;;11.90;7.80;;;;;;;24.60;nan;102059.09;5076297;28;20171;-74
2021/11/09 08:54:15;;;;;;;12.10;8.17;;;;;;;25.28;nan;102077.34;5076149;28;20210;-74
2021/11/09 08:56:55;;;;;;;13.60;8.47;;;;;;;25.00;nan;102073.63;5060098;28;20207;-74
2021/11/09 09:04:50;;;;;;;14.03;8.33;;;;;;;24.97;nan;102091.13;5076202;28;20193;-74
2021/11/09 09:07:15;;;;;;;9.57;7.60;;;;;;;25.42;nan;102082.31;5058599;28;20171;-74
2021/11/09 09:09:41;;;;;;;12.13;8.23;;;;;;;24.55;nan;102090.53;5058252;28;20243;-75
2021/11/09 09:12:06;;;;;;;15.13;8.40;;;;;;;24.28;nan;102080.28;5076239;28;20171;-74
2021/11/09 09:14:33;;;;;;;13.50;7.67;;;;;;;25.14;nan;102079.50;5076270;28;20216;-75
2021/11/09 09:17:00;;;;;;;13.00;7.53;;;;;;;26.11;nan;102096.47;5059537;28;20585;-74
2021/11/09 09:19:30;;;;;;;11.67;7.10;;;;;;;24.26;nan;102093.19;5081868;28;20264;-76
2021/11/09 09:22:03;;;;;;;9.20;5.77;;;;;;;24.13;nan;102090.69;5079724;28;20539;-75
2021/11/09 09:24:47;;;;;;;10.07;6.30;;;;;;;24.59;nan;102087.38;5058283;28;20194;-75
2021/11/09 09:29:57;;;;;;;9.33;6.23;;;;;;;25.89;nan;102093.28;5060463;28;20161;-75
2021/11/09 09:32:51;;;;;;;8.40;6.10;;;;;;;25.62;nan;102094.91;5059627;28;20640;-75
2021/11/09 09:56:57;;;;;;;9.80;7.50;;;;;;;22.73;nan;102098.41;5058885;28;20216;-75
2021/11/09 09:59:32;;;;;;;13.50;7.73;;;;;;;23.60;nan;102106.38;5077638;28;20586;-75
2021/11/09 10:02:16;;;;;;;14.30;10.23;;;;;;;23.73;nan;102098.84;5077979;28;20166;-74
2021/11/09 10:04:47;;;;;;;11.20;7.50;;;;;;;23.35;nan;102103.03;5058007;28;20640;-75
2021/11/09 10:07:13;;;;;;;12.30;8.77;;;;;;;23.01;nan;102096.06;5057370;28;20665;-74
2021/11/09 10:09:42;;;;;;;16.53;8.70;;;;;;;24.23;nan;102098.91;5057360;28;20170;-76
2021/11/09 10:12:25;;;;;;;9.13;7.07;;;;;;;26.29;nan;102101.97;5075307;28;20182;-75
2021/11/09 10:14:55;;;;;;;11.13;7.00;;;;;;;24.90;nan;102100.88;5058440;28;20222;-75
2021/11/09 10:17:24;;;;;;;11.37;6.97;;;;;;;23.10;nan;102095.28;5079196;28;20622;-75
2021/11/09 10:19:49;;;;;;;11.30;5.60;;;;;;;23.57;nan;102095.75;5079464;28;20202;-76
2021/11/09 10:22:21;;;;;;;11.97;6.90;;;;;;;24.60;nan;102089.13;5075831;28;20177;-76
2021/11/09 10:25:01;;;;;;;9.40;6.40;;;;;;;25.16;nan;102082.94;5075143;28;20197;-75
2021/11/09 10:27:29;;;;;;;8.17;5.80;;;;;;;22.03;nan;102085.22;5075603;28;20158;-74
2021/11/09 10:29:55;;;;;;;13.43;5.87;;;;;;;23.32;nan;102092.41;5075028;28;20584;-75
2021/11/09 10:32:24;;;;;;;10.03;5.40;;;;;;;25.54;nan;102094.78;5074537;28;20231;-75
2021/11/09 10:34:49;;;;;;;10.37;5.47;;;;;;;24.39;nan;102090.22;5057701;28;20717;-75
2021/11/09 10:37:20;;;;;;;7.03;5.37;;;;;;;21.77;nan;102084.56;5075637;28;20293;-74
2021/11/09 10:39:47;;;;;;;9.03;5.47;;;;;;;23.48;nan;102091.97;5057562;28;20194;-75
2021/11/09 10:42:14;;;;;;;10.00;4.87;;;;;;;23.64;nan;102102.41;5075759;28;20723;-77
2021/11/09 10:44:42;;;;;;;7.47;4.97;;;;;;;24.87;nan;102088.38;5074632;28;20702;-74
2021/11/09 10:47:15;;;;;;;10.87;5.40;;;;;;;24.89;nan;102097.28;5074444;28;20171;-75
2021/11/09 10:49:57;;;;;;;6.37;4.70;;;;;;;24.54;nan;102095.16;5056854;28;20181;-75
2021/11/09 10:52:28;;;;;;;10.57;5.47;;;;;;;25.14;nan;102093.16;5075291;28;20158;-75
2021/11/09 10:55:06;;;;;;;9.17;4.97;;;;;;;26.17;nan;102106.81;5064279;22;20222;-68
2021/11/09 10:57:38;;;;;;;12.87;4.97;;;;;;;25.93;nan;102105.63;5033978;28;20613;-68
2021/11/09 11:05:22;;;;;;;9.03;4.40;;;;;;;26.94;nan;102099.09;5034057;28;20568;-68
2021/11/09 11:07:55;;;;;;;9.13;4.57;;;;;;;25.32;nan;102097.88;5032582;28;20172;-69
2021/11/09 11:10:32;;;;;;;8.83;4.80;;;;;;;26.02;nan;102100.13;5016073;28;20192;-69
2021/11/09 11:13:21;;;;;;;7.83;4.40;;;;;;;24.08;nan;102101.16;5034273;28;20310;-69
2021/11/09 11:16:05;;;;;;;7.00;4.23;;;;;;;26.38;nan;102097.50;5033956;28;20226;-69
2021/11/09 11:18:36;;;;;;;6.27;4.17;;;;;;;26.91;nan;102105.75;5032280;28;20208;-69
2021/11/09 11:21:01;;;;;;;9.43;4.27;;;;;;;23.60;nan;102085.47;5033504;28;20161;-69
2021/11/09 11:23:28;;;;;;;7.87;3.70;;;;;;;25.29;nan;102095.44;5042076;28;20206;-69
2021/11/09 11:25:54;;;;;;;7.17;4.07;;;;;;;25.35;nan;102092.13;5031477;28;20192;-69
2021/11/09 11:28:19;;;;;;;6.57;3.43;;;;;;;23.19;nan;102089.03;5046206;28;20244;-68
2021/11/09 11:30:45;;;;;;;6.33;3.57;;;;;;;25.32;nan;102081.50;5036500;28;20184;-70
2021/11/09 11:33:10;;;;;;;9.40;3.80;;;;;;;23.87;nan;102082.16;5033298;28;20234;-70
2021/11/09 11:35:35;;;;;;;10.40;3.70;;;;;;;24.36;nan;102083.19;5034616;28;20545;-69
2021/11/09 11:38:01;;;;;;;7.63;3.60;;;;;;;23.54;nan;102088.69;5034990;28;20184;-69
2021/11/09 11:40:29;;;;;;;7.33;3.57;;;;;;;25.35;nan;102076.59;5034565;28;20267;-69
2021/11/09 11:42:54;;;;;;;11.20;3.50;;;;;;;24.98;nan;102072.88;5032735;28;20180;-69
2021/11/09 11:45:19;;;;;;;7.10;3.17;;;;;;;26.52;nan;102083.28;5033734;28;20258;-70
2021/11/09 11:48:04;;;;;;;7.33;3.00;;;;;;;23.94;nan;102088.75;5033618;28;20208;-70
2021/11/09 11:50:38;;;;;;;15.00;3.33;;;;;;;25.58;nan;102084.44;5032303;28;20230;-69
2021/11/09 11:53:04;;;;;;;8.63;3.50;;;;;;;25.65;nan;102078.22;5032026;28;20378;-68
2021/11/09 11:55:29;;;;;;;7.97;3.47;;;;;;;24.19;nan;102072.94;5033038;28;20632;-69
2021/11/09 11:58:12;;;;;;;8.37;3.30;;;;;;;23.51;nan;102069.03;5031676;28;20183;-69
2021/11/09 12:00:51;;;;;;;6.33;2.80;;;;;;;26.41;nan;102087.13;5032043;28;20172;-69
2021/11/09 12:03:23;;;;;;;8.20;3.30;;;;;;;25.64;nan;102079.22;5031592;28;20513;-69
2021/11/09 12:05:49;;;;;;;8.97;3.10;;;;;;;25.78;nan;102083.38;5032935;28;20202;-67
2021/11/09 12:08:17;;;;;;;6.67;2.57;;;;;;;25.29;nan;102079.91;5032169;28;20169;-67
2021/11/09 12:10:44;;;;;;;7.97;3.10;;;;;;;24.99;nan;102088.28;5032017;28;20172;-68
2021/11/09 12:13:10;;;;;;;7.00;2.70;;;;;;;26.65;nan;102082.91;5033132;28;20176;-69
2021/11/09 12:15:48;;;;;;;7.47;2.67;;;;;;;24.33;nan;102075.28;5031641;28;20195;-68
2021/11/09 12:18:31;;;;;;;8.50;2.90;;;;;;;23.61;nan;102073.56;5031407;28;20203;-69
2021/11/09 12:21:08;;;;;;;8.23;3.73;;;;;;;24.57;nan;102069.44;5033426;28;20255;-68
2021/11/09 12:23:35;;;;;;;9.27;2.87;;;;;;;27.25;nan;102064.81;5031934;28;20187;-68
2021/11/09 12:26:00;;;;;;;11.30;2.90;;;;;;;29.69;nan;102056.28;5031739;28;20522;-69
2021/11/09 12:28:37;;;;;;;7.03;2.80;;;;;;;31.67;nan;102077.50;5032000;28;20176;-68
2021/11/09 12:31:16;;;;;;;8.97;2.20;;;;;;;29.35;nan;102060.13;5031877;28;20176;-69
2021/11/09 12:33:47;;;;;;;9.97;2.47;;;;;;;33.28;nan;102062.59;5031863;28;20194;-69
2021/11/09 12:36:12;;;;;;;7.27;2.43;;;;;;;30.95;nan;102065.28;5031813;28;20183;-69
2021/11/09 12:38:43;;;;;;;5.23;2.50;;;;;;;29.03;nan;102066.53;5032641;28;20201;-69
2021/11/09 12:41:12;;;;;;;6.00;2.20;;;;;;;30.89;nan;102069.63;5035859;28;20548;-69
2021/11/09 12:43:43;;;;;;;6.03;2.40;;;;;;;32.65;nan;102057.72;5032725;28;20214;-69
2021/11/09 12:46:22;;;;;;;8.83;2.10;;;;;;;32.65;nan;102051.34;5031277;28;20180;-68
2021/11/09 12:48:56;;;;;;;10.80;3.20;;;;;;;29.54;nan;102061.69;5032779;28;20144;-68
2021/11/09 12:51:28;;;;;;;7.70;2.30;;;;;;;30.35;nan;102044.84;5014943;28;20176;-69
2021/11/09 12:53:58;;;;;;;7.93;2.03;;;;;;;28.72;nan;102046.25;5031667;28;20152;-68
2021/11/09 12:56:31;;;;;;;7.97;2.20;;;;;;;28.70;nan;102045.56;5035401;28;20582;-69
2021/11/09 12:59:04;;;;;;;9.20;2.07;;;;;;;30.45;nan;102058.34;5035071;28;20187;-69
2021/11/09 13:01:39;;;;;;;6.90;2.20;;;;;;;29.97;nan;102046.56;5036395;28;20160;-69
2021/11/09 13:07:07;;;;;;;9.00;2.83;;;;;;;29.50;nan;102025.41;5036533;28;20231;-69
2021/11/09 13:09:41;;;;;;;10.23;2.73;;;;;;;31.30;nan;102042.56;5035009;28;20228;-69
2021/11/09 13:12:10;;;;;;;8.37;1.97;;;;;;;31.83;nan;102040.59;5035434;28;20157;-69
2021/11/09 13:14:49;;;;;;;9.37;2.37;;;;;;;30.50;nan;102036.66;5036066;28;20567;-69
2021/11/09 13:17:18;;;;;;;10.20;2.00;;;;;;;27.73;nan;102027.75;5037634;28;20210;-69
2021/11/09 13:19:45;;;;;;;5.63;1.70;;;;;;;28.58;nan;102036.78;5034847;28;20202;-69
2021/11/09 13:22:28;;;;;;;7.43;1.73;;;;;;;27.87;nan;102029.00;5035004;28;20203;-69
2021/11/09 13:25:04;;;;;;;7.13;1.83;;;;;;;30.69;nan;102040.84;5034663;28;20283;-69
2021/11/09 13:27:43;;;;;;;10.67;2.20;;;;;;;26.66;nan;102038.06;5018152;28;20305;-69
2021/11/09 13:30:13;;;;;;;9.43;2.80;;;;;;;27.36;nan;102036.25;5034952;28;20165;-70
2021/11/09 13:32:39;;;;;;;6.30;1.57;;;;;;;29.30;nan;102026.81;5034562;28;20255;-70
2021/11/09 13:35:24;;;;;;;9.60;2.30;;;;;;;28.44;nan;102023.72;5034942;28;20218;-70
2021/11/09 13:38:09;;;;;;;9.77;1.77;;;;;;;29.86;nan;102014.78;5034727;28;20664;-69
2021/11/09 13:40:39;;;;;;;6.17;1.77;;;;;;;26.52;nan;102030.41;5036319;28;20701;-69
2021/11/09 13:43:07;;;;;;;9.07;1.83;;;;;;;28.24;nan;102024.00;5035734;28;20537;-70